Time;durP1;ratioP1;P1;durP2;ratioP2;P2;SDS_P1;SDS_P2;PMS_P1;PMS_P2;Temp;Humidity;BMP_temperature;BMP_pressure;BME280_temperature;BME280_humidity;BME280_pressure;Samples;Min_cycle;Max_cycle;Signal;HPM_P1;HPM_P2
2023/03/14 00:00:07;;;;;;;1.60;1.50;;;11.30;99.90;;;;;;5053599;28;20530;-63
2023/03/14 00:02:34;;;;;;;1.90;1.33;;;11.30;99.90;;;;;;5053509;28;20968;-64
2023/03/14 00:05:06;;;;;;;3.83;1.83;;;11.30;99.90;;;;;;5054098;28;20471;-65
2023/03/14 00:07:34;;;;;;;1.93;1.43;;;11.40;99.90;;;;;;5053587;28;20428;-64
2023/03/14 00:10:04;;;;;;;3.30;1.50;;;11.50;99.90;;;;;;5053708;28;20455;-64
2023/03/14 00:12:31;;;;;;;3.53;1.50;;;11.50;99.90;;;;;;5053129;28;20449;-63
2023/03/14 00:14:59;;;;;;;3.17;1.60;;;11.50;99.90;;;;;;5053462;28;20476;-63
2023/03/14 00:17:25;;;;;;;2.70;1.60;;;11.50;99.90;;;;;;5053177;28;20846;-64
2023/03/14 00:19:53;;;;;;;3.20;1.60;;;11.50;99.90;;;;;;5052864;28;20448;-63
2023/03/14 00:22:22;;;;;;;3.93;1.93;;;11.50;99.90;;;;;;5053351;28;20450;-63
2023/03/14 00:24:49;;;;;;;3.97;1.87;;;11.50;99.90;;;;;;5052404;28;21036;-64
2023/03/14 00:27:16;;;;;;;2.33;1.70;;;11.60;99.90;;;;;;5055371;28;20421;-64
2023/03/14 00:29:44;;;;;;;6.27;1.80;;;11.70;99.90;;;;;;5057221;28;20444;-62
2023/03/14 00:32:11;;;;;;;3.03;1.77;;;11.70;99.90;;;;;;5057085;28;20494;-63
2023/03/14 00:34:38;;;;;;;4.13;1.83;;;11.80;99.90;;;;;;5056713;28;21006;-62
2023/03/14 00:37:05;;;;;;;2.10;1.77;;;11.80;99.90;;;;;;5057239;28;20503;-64
2023/03/14 00:39:33;;;;;;;5.10;1.70;;;11.80;99.90;;;;;;5057195;28;20530;-64
2023/03/14 00:42:00;;;;;;;2.37;1.30;;;11.70;99.90;;;;;;5057302;28;20746;-63
2023/03/14 00:44:26;;;;;;;2.80;1.67;;;11.70;99.90;;;;;;5057281;28;20474;-64
2023/03/14 00:46:53;;;;;;;4.90;1.97;;;11.70;99.90;;;;;;5056766;28;20451;-63
2023/03/14 00:49:20;;;;;;;4.23;1.77;;;11.70;99.90;;;;;;5056803;28;20447;-63
2023/03/14 00:51:47;;;;;;;3.17;1.37;;;11.70;99.90;;;;;;5056243;28;20444;-63
2023/03/14 00:54:14;;;;;;;5.30;1.80;;;11.70;99.90;;;;;;5057627;28;20949;-63
2023/03/14 00:56:42;;;;;;;3.90;1.43;;;11.70;99.90;;;;;;5056449;28;20848;-62
2023/03/14 00:59:08;;;;;;;2.43;1.13;;;11.80;99.90;;;;;;5056648;28;20448;-63
2023/03/14 01:01:35;;;;;;;2.80;1.37;;;11.80;99.90;;;;;;5056497;28;20451;-62
2023/03/14 01:04:02;;;;;;;7.20;1.77;;;11.80;99.90;;;;;;5056100;28;20430;-64
2023/03/14 01:06:30;;;;;;;4.00;1.60;;;11.80;99.90;;;;;;5056474;28;20440;-63
2023/03/14 01:08:58;;;;;;;2.47;1.20;;;11.70;99.90;;;;;;5055937;28;20563;-64
2023/03/14 01:11:27;;;;;;;1.20;1.10;;;11.70;99.90;;;;;;5056410;28;20444;-63
2023/03/14 01:13:55;;;;;;;4.73;1.53;;;11.70;99.90;;;;;;5056323;28;20440;-64
2023/03/14 01:16:24;;;;;;;3.83;2.27;;;11.60;99.90;;;;;;5056120;28;20484;-62
2023/03/14 01:18:51;;;;;;;3.53;1.30;;;11.60;99.90;;;;;;5056381;28;20455;-62
2023/03/14 01:21:20;;;;;;;2.60;1.30;;;11.70;99.90;;;;;;5055754;28;20452;-62
2023/03/14 01:23:48;;;;;;;3.43;2.00;;;11.70;99.90;;;;;;5055949;28;20835;-61
2023/03/14 01:26:18;;;;;;;3.40;1.47;;;11.70;99.90;;;;;;5055585;28;20472;-62
2023/03/14 01:28:46;;;;;;;3.50;1.43;;;11.70;99.90;;;;;;5056251;28;20455;-62
2023/03/14 01:31:15;;;;;;;2.50;1.23;;;11.70;99.90;;;;;;5056035;28;20448;-63
2023/03/14 01:33:42;;;;;;;3.00;1.60;;;11.70;99.90;;;;;;5055629;28;20536;-62
2023/03/14 01:36:10;;;;;;;1.80;1.33;;;11.70;99.90;;;;;;5055749;28;20486;-63
2023/03/14 01:38:38;;;;;;;5.13;1.67;;;11.70;99.90;;;;;;5055078;28;20459;-63
2023/03/14 01:41:07;;;;;;;4.53;1.87;;;11.70;99.90;;;;;;5055842;28;20448;-63
2023/03/14 01:43:35;;;;;;;3.07;1.20;;;11.70;99.90;;;;;;5055976;28;20444;-63
2023/03/14 01:46:28;;;;;;;2.60;1.60;;;11.70;99.90;;;;;;5055469;28;20831;-63
2023/03/14 01:49:02;;;;;;;1.90;1.40;;;11.70;99.90;;;;;;5055796;28;20430;-63
2023/03/14 01:51:34;;;;;;;2.00;1.67;;;11.70;99.90;;;;;;5055908;28;20428;-62
2023/03/14 01:54:08;;;;;;;2.30;1.67;;;11.70;99.90;;;;;;5055701;28;20424;-62
2023/03/14 01:56:36;;;;;;;4.97;1.40;;;11.70;99.90;;;;;;5055429;28;20460;-62
2023/03/14 01:59:07;;;;;;;2.03;1.47;;;11.70;99.90;;;;;;5055104;28;20459;-64
2023/03/14 02:01:36;;;;;;;4.20;1.50;;;11.70;99.90;;;;;;5055042;28;20921;-63
2023/03/14 02:04:06;;;;;;;2.20;1.50;;;11.70;99.90;;;;;;5056097;28;20445;-62
2023/03/14 02:06:38;;;;;;;1.50;1.20;;;11.70;99.90;;;;;;5056100;28;20450;-63
2023/03/14 02:09:05;;;;;;;3.93;1.40;;;11.70;99.90;;;;;;5055919;28;20474;-63
2023/03/14 02:11:32;;;;;;;1.77;1.27;;;11.70;99.90;;;;;;5055077;28;20443;-63
2023/03/14 02:14:00;;;;;;;1.77;1.17;;;11.70;99.90;;;;;;5055015;28;20960;-62
2023/03/14 02:16:27;;;;;;;2.77;1.70;;;11.70;99.90;;;;;;5055371;28;20555;-63
2023/03/14 02:18:55;;;;;;;3.40;1.77;;;11.70;99.90;;;;;;5055349;28;20955;-62
2023/03/14 02:21:31;;;;;;;3.00;1.50;;;11.70;99.90;;;;;;5056149;28;20437;-62
2023/03/14 02:24:10;;;;;;;4.27;1.83;;;11.70;99.90;;;;;;5057053;28;20433;-64
2023/03/14 02:26:41;;;;;;;3.57;1.13;;;11.70;99.90;;;;;;5056619;28;20791;-63
2023/03/14 02:29:09;;;;;;;3.00;1.20;;;11.70;99.90;;;;;;5056136;28;20435;-61
2023/03/14 02:31:36;;;;;;;3.83;1.33;;;11.80;99.90;;;;;;5055714;28;20442;-63
2023/03/14 02:34:04;;;;;;;3.27;1.50;;;11.80;99.90;;;;;;5055469;28;20455;-63
2023/03/14 02:36:31;;;;;;;2.43;1.50;;;11.80;99.90;;;;;;5055157;28;20857;-63
2023/03/14 02:39:07;;;;;;;1.33;1.07;;;11.70;99.90;;;;;;5054859;28;20536;-63
2023/03/14 02:41:34;;;;;;;4.03;1.50;;;11.80;99.90;;;;;;5054925;28;20455;-62
2023/03/14 02:44:01;;;;;;;3.20;1.73;;;11.70;99.90;;;;;;5054883;28;20592;-64
2023/03/14 02:46:29;;;;;;;3.47;1.30;;;11.70;99.90;;;;;;5054549;28;20536;-63
2023/03/14 02:48:59;;;;;;;4.13;1.80;;;11.70;99.90;;;;;;5054768;28;20446;-62
2023/03/14 02:51:28;;;;;;;4.80;1.90;;;11.70;99.90;;;;;;5053871;28;20452;-62
2023/03/14 02:53:55;;;;;;;2.60;1.23;;;11.70;99.90;;;;;;5054424;28;20957;-62
2023/03/14 02:56:22;;;;;;;4.50;1.47;;;11.70;99.90;;;;;;5054869;28;20502;-62
2023/03/14 02:58:48;;;;;;;2.57;1.53;;;11.60;99.90;;;;;;5054908;28;20459;-63
2023/03/14 03:01:15;;;;;;;2.83;1.03;;;11.60;99.90;;;;;;5054517;28;20531;-62
2023/03/14 03:03:43;;;;;;;4.50;1.50;;;11.60;99.90;;;;;;5054702;28;20455;-63
2023/03/14 03:06:10;;;;;;;7.03;1.30;;;11.60;99.90;;;;;;5054050;28;20469;-62
2023/03/14 03:08:37;;;;;;;2.57;1.43;;;11.60;99.90;;;;;;5054378;28;20444;-63
2023/03/14 03:11:05;;;;;;;1.97;1.37;;;11.60;99.90;;;;;;5054477;28;20445;-62
2023/03/14 03:13:32;;;;;;;2.73;1.20;;;11.60;99.90;;;;;;5053984;28;20958;-62
2023/03/14 03:15:59;;;;;;;3.10;1.60;;;11.60;99.90;;;;;;5054522;28;20463;-62
2023/03/14 03:18:26;;;;;;;2.77;1.50;;;11.60;99.90;;;;;;5053650;28;20490;-63
2023/03/14 03:20:54;;;;;;;1.97;1.23;;;11.60;99.90;;;;;;5053700;28;20449;-63
2023/03/14 03:23:21;;;;;;;2.63;1.30;;;11.60;99.90;;;;;;5053475;28;20965;-62
2023/03/14 03:25:50;;;;;;;5.30;1.53;;;11.60;99.90;;;;;;5053286;28;20486;-63
2023/03/14 03:28:17;;;;;;;4.60;1.67;;;11.70;99.90;;;;;;5053648;28;20447;-62
2023/03/14 03:30:44;;;;;;;4.23;2.10;;;11.60;99.90;;;;;;5053668;28;20448;-63
2023/03/14 03:33:12;;;;;;;1.50;1.10;;;11.60;99.90;;;;;;5053280;28;20930;-64
2023/03/14 03:35:44;;;;;;;4.10;1.13;;;11.60;99.90;;;;;;5053410;28;20829;-62
2023/03/14 03:38:13;;;;;;;2.10;1.20;;;11.60;99.90;;;;;;5053243;28;20570;-62
2023/03/14 03:40:40;;;;;;;2.30;1.10;;;11.60;99.90;;;;;;5054284;28;20446;-63
2023/03/14 03:43:07;;;;;;;1.60;1.00;;;11.70;99.90;;;;;;5053453;28;20444;-62
2023/03/14 03:45:34;;;;;;;2.00;1.00;;;11.70;99.90;;;;;;5053600;28;20474;-62
2023/03/14 03:48:00;;;;;;;2.50;1.20;;;11.70;99.90;;;;;;5053681;28;20440;-63
2023/03/14 03:50:27;;;;;;;3.30;1.33;;;11.60;99.90;;;;;;5053713;28;20792;-63
2023/03/14 03:52:54;;;;;;;2.50;1.53;;;11.40;99.90;;;;;;5053389;28;20444;-65
2023/03/14 03:55:22;;;;;;;2.03;1.20;;;11.10;99.90;;;;;;5052895;28;20847;-63
2023/03/14 03:57:49;;;;;;;3.27;1.47;;;10.80;99.90;;;;;;5053348;28;20532;-63
2023/03/14 04:00:16;;;;;;;1.90;1.30;;;10.50;99.90;;;;;;5053250;28;20459;-63
2023/03/14 04:02:43;;;;;;;2.30;1.50;;;10.20;99.90;;;;;;5053034;28;20460;-63
2023/03/14 04:05:11;;;;;;;7.22;1.70;;;10.00;99.90;;;;;;5053536;28;20475;-63
2023/03/14 04:07:37;;;;;;;3.85;1.55;;;9.90;99.90;;;;;;5053340;28;20194;-63
2023/03/14 04:11:24;;;;;;;5.43;1.17;;;9.70;99.90;;;;;;5132405;27;21012;-62
2023/03/14 04:13:51;;;;;;;3.92;1.50;;;9.60;99.90;;;;;;5132006;28;20202;-63
2023/03/14 04:16:20;;;;;;;3.90;1.30;;;9.50;99.90;;;;;;5132095;28;20309;-63
2023/03/14 04:18:46;;;;;;;1.25;0.90;;;9.40;99.90;;;;;;5131732;27;20199;-62
2023/03/14 04:21:13;;;;;;;1.85;1.13;;;9.30;99.90;;;;;;5131912;27;20203;-62
2023/03/14 04:23:40;;;;;;;2.25;1.17;;;9.30;99.90;;;;;;5132405;27;20199;-62
2023/03/14 04:26:07;;;;;;;1.88;1.30;;;9.20;99.90;;;;;;5131195;27;20332;-62
2023/03/14 04:28:36;;;;;;;1.00;0.85;;;9.10;99.90;;;;;;5131063;27;20206;-62
2023/03/14 04:31:08;;;;;;;2.63;1.10;;;9.10;99.90;;;;;;5131145;27;20322;-62
2023/03/14 04:33:35;;;;;;;1.52;0.90;;;9.00;99.90;;;;;;5131282;27;20194;-62
2023/03/14 04:36:02;;;;;;;2.75;1.20;;;9.00;99.90;;;;;;5131022;27;20250;-62
2023/03/14 04:38:29;;;;;;;2.03;1.08;;;9.00;99.90;;;;;;5131140;27;20202;-62
2023/03/14 04:40:56;;;;;;;2.10;1.10;;;8.90;99.90;;;;;;5130865;27;20195;-62
2023/03/14 04:43:23;;;;;;;0.68;0.60;;;8.90;99.90;;;;;;5130530;27;20203;-62
2023/03/14 04:45:51;;;;;;;1.55;0.90;;;8.80;99.90;;;;;;5130252;27;20300;-62
2023/03/14 04:48:18;;;;;;;2.13;1.00;;;8.80;99.90;;;;;;5130738;27;20206;-62
2023/03/14 04:50:46;;;;;;;3.15;1.08;;;8.80;99.90;;;;;;5131016;27;20304;-62
2023/03/14 04:53:13;;;;;;;1.38;0.90;;;8.80;99.90;;;;;;5130544;27;20204;-64
2023/03/14 04:55:39;;;;;;;4.05;0.90;;;8.70;99.90;;;;;;5130351;27;20727;-63
2023/03/14 04:58:06;;;;;;;3.22;1.17;;;8.70;99.90;;;;;;5130702;27;20203;-63
2023/03/14 05:00:33;;;;;;;4.10;1.10;;;8.70;99.90;;;;;;5129989;27;20207;-62
2023/03/14 05:03:01;;;;;;;1.90;0.88;;;8.60;99.90;;;;;;5130698;27;20578;-62
2023/03/14 05:05:28;;;;;;;1.10;0.95;;;8.60;99.90;;;;;;5130543;27;20219;-63
2023/03/14 05:07:55;;;;;;;3.55;0.98;;;8.60;99.90;;;;;;5130685;27;20226;-62
2023/03/14 05:10:22;;;;;;;1.55;1.00;;;8.60;99.90;;;;;;5130102;27;20223;-64
2023/03/14 05:12:48;;;;;;;1.65;0.73;;;8.60;99.90;;;;;;5130380;27;20661;-63
2023/03/14 05:15:15;;;;;;;1.13;0.80;;;8.60;99.90;;;;;;5130192;27;20223;-62
2023/03/14 05:17:42;;;;;;;2.95;0.75;;;8.60;99.90;;;;;;5130561;27;20299;-62
2023/03/14 05:20:12;;;;;;;1.10;0.85;;;8.50;99.90;;;;;;5130398;27;20203;-62
2023/03/14 05:22:40;;;;;;;1.65;0.80;;;8.50;99.90;;;;;;5117133;28;20604;-62
2023/03/14 05:25:08;;;;;;;1.25;1.05;;;8.50;99.90;;;;;;5116557;28;20224;-62
2023/03/14 05:27:35;;;;;;;6.63;1.10;;;8.50;99.90;;;;;;5116410;28;20211;-63
2023/03/14 05:30:02;;;;;;;3.25;1.40;;;8.50;99.90;;;;;;5089349;22;20221;-60
2023/03/14 05:32:29;;;;;;;5.00;1.15;;;8.50;99.90;;;;;;5056188;28;20201;-62
2023/03/14 05:34:58;;;;;;;3.80;1.17;;;8.50;99.90;;;;;;5055776;28;20205;-61
2023/03/14 05:37:27;;;;;;;1.92;1.20;;;8.60;99.90;;;;;;5055587;28;20681;-60
2023/03/14 05:39:53;;;;;;;2.00;1.05;;;8.60;99.90;;;;;;5057322;28;20711;-61
2023/03/14 05:42:20;;;;;;;6.72;1.40;;;8.60;99.90;;;;;;5057096;28;20198;-60
2023/03/14 05:44:47;;;;;;;4.82;1.15;;;8.60;99.90;;;;;;5054683;28;20205;-62
2023/03/14 05:47:14;;;;;;;5.55;1.40;;;8.60;99.90;;;;;;5053734;28;20202;-61
2023/03/14 05:49:41;;;;;;;3.63;1.20;;;8.60;99.90;;;;;;5047543;28;20219;-61
2023/03/14 05:52:07;;;;;;;5.18;1.35;;;8.60;99.90;;;;;;5035407;28;20202;-61
2023/03/14 05:54:35;;;;;;;3.40;1.23;;;8.60;99.90;;;;;;5035420;28;20202;-60
2023/03/14 05:57:02;;;;;;;4.18;1.67;;;8.60;99.90;;;;;;5035244;28;20210;-61
2023/03/14 05:59:29;;;;;;;4.32;1.40;;;8.60;99.90;;;;;;5035071;28;20694;-59
2023/03/14 06:01:56;;;;;;;2.22;1.70;;;8.60;99.90;;;;;;5035240;28;20201;-62
2023/03/14 06:04:23;;;;;;;6.93;1.50;;;8.60;99.90;;;;;;5039802;28;20205;-61
2023/03/14 06:06:49;;;;;;;3.30;1.30;;;8.60;99.90;;;;;;5054787;28;20197;-61
2023/03/14 06:09:18;;;;;;;7.57;1.60;;;8.70;99.90;;;;;;5054106;28;20217;-61
2023/03/14 06:11:47;;;;;;;5.78;1.92;;;8.70;99.90;;;;;;5053557;28;20650;-64
2023/03/14 06:14:14;;;;;;;2.97;1.17;;;8.80;99.90;;;;;;5048728;28;20209;-60
2023/03/14 06:16:40;;;;;;;2.72;1.25;;;8.80;99.90;;;;;;5055048;28;20664;-61
2023/03/14 06:19:07;;;;;;;6.05;2.00;;;8.80;99.90;;;;;;5055175;28;20221;-61
2023/03/14 06:21:34;;;;;;;3.45;1.75;;;8.90;99.90;;;;;;5055044;28;20202;-62
2023/03/14 06:24:01;;;;;;;1.90;1.20;;;9.00;99.90;;;;;;5054889;28;20288;-62
2023/03/14 06:26:28;;;;;;;3.53;1.20;;;9.10;99.90;;;;;;5054778;28;20209;-61
2023/03/14 06:28:56;;;;;;;3.65;1.65;;;9.30;99.90;;;;;;5055125;28;20687;-61
2023/03/14 06:31:23;;;;;;;5.15;1.58;;;9.40;99.90;;;;;;5055363;28;20217;-62
2023/03/14 06:33:50;;;;;;;2.90;1.60;;;9.40;99.90;;;;;;5054837;28;20212;-61
2023/03/14 06:36:16;;;;;;;4.70;1.23;;;9.50;99.90;;;;;;5055492;28;20208;-62
2023/03/14 06:38:43;;;;;;;2.42;1.13;;;9.60;99.90;;;;;;5058590;28;20232;-62
2023/03/14 06:41:10;;;;;;;2.60;1.23;;;9.70;99.90;;;;;;5057087;28;20209;-62
2023/03/14 06:43:37;;;;;;;2.30;1.20;;;9.70;99.90;;;;;;5054651;28;20206;-61
2023/03/14 06:46:05;;;;;;;3.80;1.50;;;9.80;99.90;;;;;;5054218;28;20205;-62
2023/03/14 06:48:32;;;;;;;3.63;1.45;;;9.80;99.90;;;;;;5054118;28;20217;-61
2023/03/14 06:50:59;;;;;;;3.05;1.17;;;9.90;99.90;;;;;;5054259;28;20302;-63
2023/03/14 06:53:26;;;;;;;6.28;1.45;;;10.00;99.90;;;;;;5054157;28;20244;-62
2023/03/14 06:55:53;;;;;;;5.38;1.10;;;10.10;99.90;;;;;;5054029;28;20210;-62
2023/03/14 06:58:20;;;;;;;2.10;0.97;;;10.10;99.90;;;;;;5054146;28;20201;-61
2023/03/14 07:00:47;;;;;;;2.10;1.00;;;10.20;99.90;;;;;;5053961;28;20445;-61
2023/03/14 07:03:15;;;;;;;4.50;1.20;;;10.20;99.90;;;;;;5054289;28;20432;-61
2023/03/14 07:05:42;;;;;;;3.63;1.17;;;10.30;99.90;;;;;;5053948;28;20444;-62
2023/03/14 07:08:09;;;;;;;1.73;0.93;;;10.30;99.90;;;;;;5054022;28;20451;-63
2023/03/14 07:10:36;;;;;;;3.13;1.00;;;10.40;99.90;;;;;;5053550;28;20484;-63
2023/03/14 07:13:04;;;;;;;1.40;0.67;;;10.50;99.90;;;;;;5053564;28;20459;-62
2023/03/14 07:15:30;;;;;;;3.50;1.00;;;10.50;99.90;;;;;;5053340;28;20497;-61
2023/03/14 07:17:57;;;;;;;1.07;0.70;;;10.50;99.90;;;;;;5053215;28;20444;-62
2023/03/14 07:20:25;;;;;;;1.60;0.80;;;10.40;99.90;;;;;;5053154;28;20480;-62
2023/03/14 07:22:52;;;;;;;2.07;1.00;;;10.50;99.90;;;;;;5053070;28;20934;-62
2023/03/14 07:25:19;;;;;;;1.67;0.65;;;10.40;99.90;;;;;;5053454;28;20448;-62
2023/03/14 07:27:46;;;;;;;1.07;0.60;;;10.40;99.90;;;;;;5053192;28;20212;-61
2023/03/14 07:30:14;;;;;;;5.70;0.80;;;10.50;99.90;;;;;;5052813;28;20529;-61
2023/03/14 07:32:41;;;;;;;2.53;0.53;;;10.50;99.90;;;;;;5053297;28;20949;-61
2023/03/14 07:35:09;;;;;;;2.63;0.87;;;10.50;99.90;;;;;;5054336;28;20452;-62
2023/03/14 07:37:37;;;;;;;1.23;0.80;;;10.50;99.90;;;;;;5054045;28;20454;-61
2023/03/14 07:40:06;;;;;;;1.30;0.73;;;10.60;99.90;;;;;;5054857;28;20471;-61
2023/03/14 07:42:33;;;;;;;2.53;1.23;;;10.60;99.90;;;;;;5056830;28;20455;-62
2023/03/14 07:45:00;;;;;;;1.20;0.70;;;10.60;99.90;;;;;;5057294;28;20454;-63
2023/03/14 07:47:27;;;;;;;1.10;0.80;;;10.60;99.90;;;;;;5056875;28;20945;-61
2023/03/14 07:49:53;;;;;;;1.10;0.50;;;10.70;99.90;;;;;;5052062;28;20480;-62
2023/03/14 07:52:20;;;;;;;2.30;0.70;;;10.70;99.90;;;;;;5053795;28;20480;-62
2023/03/14 07:54:48;;;;;;;1.73;0.60;;;10.70;99.90;;;;;;5054215;28;20814;-61
2023/03/14 07:57:16;;;;;;;1.00;0.80;;;10.60;99.90;;;;;;5053232;28;20835;-61
2023/03/14 07:59:43;;;;;;;1.70;0.80;;;10.50;99.90;;;;;;5052593;28;20578;-62
2023/03/14 08:02:12;;;;;;;4.00;0.90;;;10.40;99.90;;;;;;5051821;28;20880;-61
2023/03/14 08:04:40;;;;;;;1.77;1.07;;;10.40;99.90;;;;;;5040610;28;20460;-62
2023/03/14 08:07:07;;;;;;;1.23;0.60;;;10.30;99.90;;;;;;5051119;28;20471;-60
2023/03/14 08:09:34;;;;;;;3.37;1.17;;;10.30;99.90;;;;;;5052902;28;20494;-62
2023/03/14 08:12:02;;;;;;;1.23;0.63;;;10.20;99.90;;;;;;5059288;28;20481;-62
2023/03/14 08:14:30;;;;;;;0.93;0.67;;;10.20;99.90;;;;;;5060889;28;20443;-62
2023/03/14 08:16:57;;;;;;;1.73;0.67;;;10.30;99.90;;;;;;5056245;28;20459;-62
2023/03/14 08:19:24;;;;;;;0.93;0.60;;;10.40;99.90;;;;;;5054941;28;20468;-62
2023/03/14 08:21:51;;;;;;;1.10;0.80;;;10.40;99.90;;;;;;5055636;28;20448;-62
2023/03/14 08:24:18;;;;;;;0.97;0.70;;;10.50;99.90;;;;;;5055224;28;20454;-63
2023/03/14 08:26:44;;;;;;;0.87;0.47;;;10.60;99.90;;;;;;5055607;28;20443;-61
2023/03/14 08:29:12;;;;;;;0.70;0.67;;;10.60;99.90;;;;;;5054707;28;20494;-61
2023/03/14 08:31:39;;;;;;;1.30;0.70;;;10.70;99.90;;;;;;5055239;28;20484;-62
2023/03/14 08:34:07;;;;;;;0.70;0.70;;;10.90;99.90;;;;;;5055028;28;20449;-63
2023/03/14 08:36:34;;;;;;;1.30;0.80;;;11.00;99.90;;;;;;5054601;28;20502;-63
2023/03/14 08:39:01;;;;;;;0.70;0.50;;;11.10;99.90;;;;;;5054403;28;20464;-62
2023/03/14 08:41:28;;;;;;;3.20;1.70;;;11.50;99.90;;;;;;5053994;28;20498;-62
2023/03/14 08:43:54;;;;;;;2.30;1.07;;;11.80;99.90;;;;;;5054433;28;20446;-62
2023/03/14 08:46:23;;;;;;;1.00;0.50;;;12.00;99.90;;;;;;5053924;28;20458;-62
2023/03/14 08:48:49;;;;;;;1.00;0.53;;;12.00;99.90;;;;;;5053678;28;20601;-60
2023/03/14 08:51:16;;;;;;;1.67;1.10;;;11.90;99.90;;;;;;5053899;28;20559;-62
2023/03/14 08:53:43;;;;;;;1.23;0.60;;;11.80;99.90;;;;;;5053870;28;20489;-62
2023/03/14 08:56:10;;;;;;;1.40;0.77;;;11.80;99.90;;;;;;5053370;28;20457;-61
2023/03/14 08:58:38;;;;;;;5.90;1.00;;;11.80;99.90;;;;;;5057023;28;20464;-61
2023/03/14 09:01:05;;;;;;;0.70;0.63;;;11.70;99.90;;;;;;5056643;28;20827;-64
2023/03/14 09:03:33;;;;;;;2.10;0.93;;;11.70;99.90;;;;;;5057667;28;20444;-63
2023/03/14 09:06:04;;;;;;;1.00;0.90;;;11.70;99.90;;;;;;5057237;28;20455;-62
2023/03/14 09:08:31;;;;;;;0.70;0.53;;;11.60;99.90;;;;;;5056446;28;20488;-61
2023/03/14 09:10:58;;;;;;;2.30;0.80;;;11.60;99.90;;;;;;5056559;28;20490;-62
2023/03/14 09:13:25;;;;;;;1.30;1.00;;;11.50;99.90;;;;;;5056446;28;20448;-62
2023/03/14 09:15:52;;;;;;;0.80;0.70;;;11.50;99.90;;;;;;5056634;28;20446;-61
2023/03/14 09:18:19;;;;;;;1.50;1.00;;;11.40;99.90;;;;;;5056460;28;20937;-63
2023/03/14 09:20:47;;;;;;;3.07;0.80;;;11.40;99.90;;;;;;5056053;28;20881;-62
2023/03/14 09:23:14;;;;;;;0.83;0.60;;;11.40;99.90;;;;;;5056563;28;20454;-62
2023/03/14 09:25:41;;;;;;;1.93;0.90;;;11.30;99.90;;;;;;5056626;28;20452;-62
2023/03/14 09:28:07;;;;;;;3.23;1.27;;;11.30;99.90;;;;;;5055926;28;20463;-60
2023/03/14 09:30:35;;;;;;;1.07;0.77;;;11.30;99.90;;;;;;5055968;28;20852;-62
2023/03/14 09:33:01;;;;;;;1.03;0.90;;;11.30;99.90;;;;;;5055737;28;20451;-62
2023/03/14 09:35:28;;;;;;;2.00;1.07;;;11.40;99.90;;;;;;5056049;28;20440;-60
2023/03/14 09:37:56;;;;;;;1.30;0.63;;;11.60;99.90;;;;;;5055853;28;20951;-62
2023/03/14 09:40:24;;;;;;;5.40;1.23;;;11.80;99.90;;;;;;5055928;28;20553;-63
2023/03/14 09:42:53;;;;;;;0.90;0.80;;;12.10;99.90;;;;;;5056026;28;20450;-62
2023/03/14 09:45:26;;;;;;;1.13;0.87;;;12.20;99.90;;;;;;5055634;28;20440;-63
2023/03/14 09:47:53;;;;;;;1.40;0.80;;;12.30;99.90;;;;;;5055469;28;20434;-62
2023/03/14 09:50:21;;;;;;;1.40;1.03;;;12.30;99.90;;;;;;5064349;28;20476;-64
2023/03/14 09:52:52;;;;;;;3.03;1.17;;;12.40;99.90;;;;;;5056794;28;20481;-61
2023/03/14 09:55:22;;;;;;;1.10;0.80;;;12.50;99.90;;;;;;5056507;28;20519;-62
2023/03/14 09:57:52;;;;;;;1.70;1.00;;;12.70;99.90;;;;;;5056202;28;20436;-62
2023/03/14 10:00:22;;;;;;;2.30;0.90;;;12.80;99.90;;;;;;5055470;28;20462;-62
2023/03/14 10:02:54;;;;;;;1.03;0.90;;;13.00;99.90;;;;;;5055566;28;20569;-61
2023/03/14 10:05:22;;;;;;;2.23;1.80;;;13.00;99.90;;;;;;5055284;28;20922;-62
2023/03/14 10:07:49;;;;;;;2.13;0.97;;;13.10;99.90;;;;;;5054915;28;20546;-62
2023/03/14 10:10:20;;;;;;;1.10;0.80;;;13.10;99.90;;;;;;5054842;28;20474;-63
2023/03/14 10:12:48;;;;;;;1.27;0.70;;;13.20;99.90;;;;;;5055513;28;20475;-62
2023/03/14 10:15:23;;;;;;;1.77;0.90;;;13.30;99.90;;;;;;5055534;28;20452;-62
2023/03/14 10:17:51;;;;;;;1.20;1.00;;;13.50;99.90;;;;;;5054493;28;20432;-62
2023/03/14 10:20:32;;;;;;;1.60;1.00;;;13.60;99.90;;;;;;5054348;28;20464;-61
2023/03/14 10:23:00;;;;;;;2.30;1.10;;;13.70;99.90;;;;;;5055164;28;20462;-61
2023/03/14 10:25:30;;;;;;;1.30;1.00;;;13.70;99.90;;;;;;5054705;28;20450;-63
2023/03/14 10:27:57;;;;;;;5.63;0.90;;;13.80;99.90;;;;;;5054830;28;20447;-62
2023/03/14 10:30:43;;;;;;;2.30;0.93;;;13.80;99.90;;;;;;5054408;28;20483;-61
2023/03/14 10:33:12;;;;;;;1.07;0.93;;;13.70;99.90;;;;;;5054607;28;20471;-62
2023/03/14 10:35:38;;;;;;;2.20;1.00;;;13.60;99.90;;;;;;5054820;28;20447;-62
2023/03/14 10:38:05;;;;;;;1.60;1.00;;;13.60;99.90;;;;;;5054724;28;20451;-62
2023/03/14 10:40:37;;;;;;;2.87;0.83;;;13.40;99.90;;;;;;5054564;28;20548;-59
2023/03/14 10:43:06;;;;;;;2.80;1.10;;;13.30;99.90;;;;;;5054351;28;20425;-62
2023/03/14 10:45:37;;;;;;;1.60;0.90;;;13.30;99.90;;;;;;5054000;28;20790;-62
2023/03/14 10:48:21;;;;;;;0.80;0.70;;;13.40;99.90;;;;;;5054202;28;20818;-62
2023/03/14 10:50:57;;;;;;;1.30;0.87;;;13.30;99.90;;;;;;5054429;28;20452;-62
2023/03/14 10:53:24;;;;;;;2.50;1.07;;;13.30;99.90;;;;;;5054058;28;20474;-63
2023/03/14 10:55:53;;;;;;;1.27;1.07;;;13.20;99.90;;;;;;5054440;28;20447;-62
2023/03/14 10:58:22;;;;;;;2.07;1.30;;;13.20;99.90;;;;;;5053698;28;20537;-63
2023/03/14 11:00:54;;;;;;;1.50;1.20;;;13.20;99.90;;;;;;5053932;28;20504;-63
2023/03/14 11:03:22;;;;;;;1.93;1.60;;;13.20;99.90;;;;;;5055361;28;20428;-63
2023/03/14 11:05:54;;;;;;;1.30;1.20;;;13.20;99.90;;;;;;5054594;28;20979;-62
2023/03/14 11:08:26;;;;;;;1.60;1.50;;;13.10;99.90;;;;;;5054780;28;20443;-60
2023/03/14 11:10:58;;;;;;;2.77;2.27;;;13.00;99.90;;;;;;5054812;28;20434;-63
2023/03/14 11:13:28;;;;;;;1.87;1.60;;;12.90;99.90;;;;;;5054672;28;20466;-62
2023/03/14 11:16:07;;;;;;;3.07;1.97;;;12.80;99.90;;;;;;5054279;28;20452;-62
2023/03/14 11:19:01;;;;;;;2.17;1.77;;;12.80;99.90;;;;;;5054325;28;20526;-62
2023/03/14 11:21:34;;;;;;;1.90;1.80;;;12.60;99.90;;;;;;5053595;28;20425;-62
2023/03/14 11:24:20;;;;;;;9.67;3.43;;;12.30;99.90;;;;;;5053744;28;20423;-63
2023/03/14 11:26:54;;;;;;;1.53;1.13;;;11.90;99.90;;;;;;5058791;28;20432;-62
2023/03/14 11:29:26;;;;;;;1.40;1.03;;;11.10;99.90;;;;;;5060333;28;20579;-62
2023/03/14 11:31:58;;;;;;;1.63;0.82;;;10.20;99.90;;;;;;5053889;28;20464;-61
2023/03/14 11:34:29;;;;;;;2.85;1.17;;;9.20;99.90;;;;;;5053519;28;20207;-62
2023/03/14 11:37:02;;;;;;;5.38;1.45;;;8.50;99.90;;;;;;5054178;28;20188;-62
2023/03/14 11:39:39;;;;;;;1.60;1.50;;;7.90;99.90;;;;;;5055094;28;20225;-62
2023/03/14 11:42:12;;;;;;;2.55;1.80;;;7.40;99.90;;;;;;5055332;28;20189;-64
2023/03/14 11:44:41;;;;;;;3.42;2.15;;;7.00;99.90;;;;;;5056104;28;20255;-60
2023/03/14 11:47:14;;;;;;;2.75;2.55;;;6.80;99.90;;;;;;5054874;28;20229;-62
2023/03/14 11:49:47;;;;;;;2.38;2.13;;;6.60;99.90;;;;;;5054543;28;20226;-62
2023/03/14 11:52:20;;;;;;;3.00;2.70;;;6.50;99.90;;;;;;5054418;28;20207;-62
2023/03/14 11:54:50;;;;;;;2.53;2.00;;;6.50;99.90;;;;;;5054666;28;20277;-62
2023/03/14 11:57:20;;;;;;;1.85;1.23;;;6.30;99.90;;;;;;5054178;28;20201;-63
2023/03/14 11:59:53;;;;;;;1.85;1.70;;;6.30;99.90;;;;;;5055498;28;20250;-62
2023/03/14 12:02:26;;;;;;;1.40;1.30;;;6.00;99.90;;;;;;5053985;28;20288;-63
2023/03/14 12:05:16;;;;;;;2.47;1.20;;;5.80;99.90;;;;;;5054842;28;20240;-62
2023/03/14 12:07:59;;;;;;;0.85;0.60;;;5.70;99.90;;;;;;5040643;28;20198;-63
2023/03/14 12:10:26;;;;;;;2.08;0.90;;;5.50;99.90;;;;;;5054949;28;20715;-62
2023/03/14 12:12:54;;;;;;;0.77;0.60;;;5.30;99.90;;;;;;5056158;28;20228;-62
2023/03/14 12:15:24;;;;;;;1.48;0.95;;;5.20;99.90;;;;;;5056381;28;20205;-62
2023/03/14 12:17:55;;;;;;;0.80;0.55;;;5.10;99.90;;;;;;5058247;28;20281;-63
2023/03/14 12:20:24;;;;;;;0.70;0.60;;;4.90;99.90;;;;;;5057002;28;20243;-64
2023/03/14 12:22:53;;;;;;;1.80;0.70;;;4.80;99.90;;;;;;5057714;28;20200;-63
2023/03/14 12:25:22;;;;;;;0.98;0.80;;;4.60;99.90;;;;;;5056709;28;20575;-61
2023/03/14 12:28:05;;;;;;;1.75;0.98;;;4.50;99.90;;;;;;5057513;28;20206;-63
2023/03/14 12:30:35;;;;;;;0.70;0.70;;;4.40;99.90;;;;;;5055418;28;20243;-62
2023/03/14 12:33:32;;;;;;;2.58;0.70;;;4.30;99.90;;;;;;5059625;28;20272;-61
2023/03/14 12:36:01;;;;;;;1.40;0.93;;;4.20;99.90;;;;;;5061211;28;20181;-61
2023/03/14 12:38:44;;;;;;;0.60;0.50;;;4.10;99.90;;;;;;5060543;28;20202;-62
2023/03/14 12:41:18;;;;;;;0.82;0.70;;;4.00;99.90;;;;;;5059414;28;20194;-61
2023/03/14 12:43:46;;;;;;;1.10;1.00;;;3.90;99.90;;;;;;5057470;28;20654;-63
2023/03/14 12:46:22;;;;;;;2.17;0.90;;;3.80;99.90;;;;;;5058123;28;20220;-61
2023/03/14 12:48:51;;;;;;;0.93;0.70;;;3.80;99.90;;;;;;5057630;28;20233;-61
2023/03/14 12:51:20;;;;;;;1.55;0.63;;;3.80;99.90;;;;;;5058068;28;20206;-61
2023/03/14 12:54:02;;;;;;;1.75;0.82;;;3.80;99.90;;;;;;5057391;28;20329;-62
2023/03/14 12:56:45;;;;;;;1.75;0.88;;;3.80;99.90;;;;;;5058223;28;20190;-62
2023/03/14 12:59:42;;;;;;;2.55;1.15;;;3.70;99.90;;;;;;5058204;28;20255;-61